(°C)
16°
15°
14°
14°
14°
14°
13°
(°C)
11°
10°
10°
NW
NNW
NNE
NNE
شمال
NNE
NE
(كم/سا)
5-16
2-16
3-12
4-15
3-16
7-16
7-15
(مم)
0
0
0
0
0
0
0
(%)
0
0
0
0
0
0
0

مستوى ارتفاع الشمس

/ -20.4°
sun-icon
UV 5
07:35
19:13
قمر الصباح (136°)
17:50
03:17

متر لIoánnina (LGIO)

الوقت الشروط درجة الحرارة/
نقطة الندى
رياح مجال رؤية حالة الطقس غيوم الضغط تغيير خام
VFR 15°C / 6°C variable 0kt >10km - Clouds and Visibility OK 1024 - LGIO 061720Z 00000KT CAVOK 15/06 Q1024
18°C / 5°C variable 3kt - 1024 - LGIO 061650Z AUTO VRB03KT //// // ////// 18/05 Q1024 RE//
17°C / 8°C variable 1kt - 1024 - LGIO 061620Z AUTO VRB01KT //// // ////// 17/08 Q1024 RE//
19°C / 6°C variable 1kt - 1024 - LGIO 061550Z AUTO VRB01KT //// // ////// 19/06 Q1024 RE//
20°C / 5°C variable 1kt - 1024 - LGIO 061520Z AUTO VRB01KT //// // ////// 20/05 Q1024 RE//
21°C / 5°C variable 3kt - 1024 - LGIO 061450Z AUTO VRB03KT //// // ////// 21/05 Q1024 RE//
22°C / 5°C variable 2kt - 1024 - LGIO 061420Z AUTO VRB02KT //// // ////// 22/05 Q1024 RE//
21°C / 5°C 260º variable 240º to 330º 5kt - 1024 - LGIO 061350Z AUTO 26005KT 240V330 //// // ////// 21/05 Q1024 RE//
22°C / 4°C 290º variable 260º to 340º 5kt - 1024 - LGIO 061320Z AUTO 29005KT 260V340 //// // ////// 22/04 Q1024 RE//
VFR 22°C / 5°C variable 3kt >10km - Clouds and Visibility OK 1024 - LGIO 061250Z VRB03KT CAVOK 22/05 Q1024
VFR 22°C / 5°C variable 4kt >10km - Clouds and Visibility OK 1025 - LGIO 061220Z VRB04KT CAVOK 22/05 Q1025
VFR 22°C / 5°C 310º variable 200º to 010º 4kt >10km - Clouds and Visibility OK 1025 - LGIO 061150Z 31004KT 200V010 CAVOK 22/05 Q1025
VFR 21°C / 6°C 320º variable 240º to 360º 4kt >10km - Clouds and Visibility OK 1025 - LGIO 061120Z 32004KT 240V360 CAVOK 21/06 Q1025
VFR 21°C / 5°C 280º variable 170º to 310º 5kt >10km - Clouds and Visibility OK 1025 - LGIO 061050Z 28005KT 170V310 CAVOK 21/05 Q1025
VFR 21°C / 3°C variable 2kt >10km - Clouds and Visibility OK 1026 - LGIO 061020Z VRB02KT CAVOK 21/03 Q1026
VFR 21°C / 3°C 310º variable 240º to 350º 4kt >10km - Clouds and Visibility OK 1026 - LGIO 060950Z 31004KT 240V350 CAVOK 21/03 Q1026
VFR 20°C / 3°C 310º variable 260º to 020º 6kt >10km - Clouds and Visibility OK 1026 - LGIO 060920Z 31006KT 260V020 CAVOK 20/03 Q1026
VFR 19°C / 4°C 280º variable 220º to 330º 4kt >10km - Clouds and Visibility OK 1026 - LGIO 060850Z 28004KT 220V330 CAVOK 19/04 Q1026
VFR 18°C / 6°C 320º variable 260º to 360º 4kt >10km - Clouds and Visibility OK 1026 - LGIO 060820Z 32004KT 260V360 CAVOK 18/06 Q1026
VFR 16°C / 7°C 360º variable 300º to 040º 4kt >10km - Clouds and Visibility OK 1027 - LGIO 060750Z 36004KT 300V040 CAVOK 16/07 Q1027
VFR 15°C / 6°C variable 2kt >10km - Clouds and Visibility OK 1027 - LGIO 060720Z VRB02KT CAVOK 15/06 Q1027
VFR 13°C / 7°C 360º 4kt >10km - Clouds and Visibility OK 1027 - LGIO 060650Z 36004KT CAVOK 13/07 Q1027
VFR 11°C / 6°C variable 3kt >10km - Clouds and Visibility OK 1027 - LGIO 060620Z VRB03KT CAVOK 11/06 Q1027
VFR 11°C / 6°C variable 0kt >10km - Clouds and Visibility OK 1027 - LGIO 060550Z 00000KT CAVOK 11/06 Q1027

VFR

15°C / 6°C

[أكثر]
رياح variable 0kt
مجال رؤية >10km
حالة الطقس -
غيوم Clouds and Visibility OK
الضغط 1024
تغيير -
خام LGIO 061720Z 00000KT CAVOK 15/06 Q1024

18°C / 5°C

[أكثر]
رياح variable 3kt
مجال رؤية
حالة الطقس -
غيوم
الضغط 1024
تغيير -
خام LGIO 061650Z AUTO VRB03KT //// // ////// 18/05 Q1024 RE//

17°C / 8°C

[أكثر]
رياح variable 1kt
مجال رؤية
حالة الطقس -
غيوم
الضغط 1024
تغيير -
خام LGIO 061620Z AUTO VRB01KT //// // ////// 17/08 Q1024 RE//

19°C / 6°C

[أكثر]
رياح variable 1kt
مجال رؤية
حالة الطقس -
غيوم
الضغط 1024
تغيير -
خام LGIO 061550Z AUTO VRB01KT //// // ////// 19/06 Q1024 RE//

20°C / 5°C

[أكثر]
رياح variable 1kt
مجال رؤية
حالة الطقس -
غيوم
الضغط 1024
تغيير -
خام LGIO 061520Z AUTO VRB01KT //// // ////// 20/05 Q1024 RE//

21°C / 5°C

[أكثر]
رياح variable 3kt
مجال رؤية
حالة الطقس -
غيوم
الضغط 1024
تغيير -
خام LGIO 061450Z AUTO VRB03KT //// // ////// 21/05 Q1024 RE//

22°C / 5°C

[أكثر]
رياح variable 2kt
مجال رؤية
حالة الطقس -
غيوم
الضغط 1024
تغيير -
خام LGIO 061420Z AUTO VRB02KT //// // ////// 22/05 Q1024 RE//

21°C / 5°C

[أكثر]
رياح 260º variable 240º to 330º 5kt
مجال رؤية
حالة الطقس -
غيوم
الضغط 1024
تغيير -
خام LGIO 061350Z AUTO 26005KT 240V330 //// // ////// 21/05 Q1024 RE//

22°C / 4°C

[أكثر]
رياح 290º variable 260º to 340º 5kt
مجال رؤية
حالة الطقس -
غيوم
الضغط 1024
تغيير -
خام LGIO 061320Z AUTO 29005KT 260V340 //// // ////// 22/04 Q1024 RE//

VFR

22°C / 5°C

[أكثر]
رياح variable 3kt
مجال رؤية >10km
حالة الطقس -
غيوم Clouds and Visibility OK
الضغط 1024
تغيير -
خام LGIO 061250Z VRB03KT CAVOK 22/05 Q1024

VFR

22°C / 5°C

[أكثر]
رياح variable 4kt
مجال رؤية >10km
حالة الطقس -
غيوم Clouds and Visibility OK
الضغط 1025
تغيير -
خام LGIO 061220Z VRB04KT CAVOK 22/05 Q1025

VFR

22°C / 5°C

[أكثر]
رياح 310º variable 200º to 010º 4kt
مجال رؤية >10km
حالة الطقس -
غيوم Clouds and Visibility OK
الضغط 1025
تغيير -
خام LGIO 061150Z 31004KT 200V010 CAVOK 22/05 Q1025

VFR

21°C / 6°C

[أكثر]
رياح 320º variable 240º to 360º 4kt
مجال رؤية >10km
حالة الطقس -
غيوم Clouds and Visibility OK
الضغط 1025
تغيير -
خام LGIO 061120Z 32004KT 240V360 CAVOK 21/06 Q1025

VFR

21°C / 5°C

[أكثر]
رياح 280º variable 170º to 310º 5kt
مجال رؤية >10km
حالة الطقس -
غيوم Clouds and Visibility OK
الضغط 1025
تغيير -
خام LGIO 061050Z 28005KT 170V310 CAVOK 21/05 Q1025

VFR

21°C / 3°C

[أكثر]
رياح variable 2kt
مجال رؤية >10km
حالة الطقس -
غيوم Clouds and Visibility OK
الضغط 1026
تغيير -
خام LGIO 061020Z VRB02KT CAVOK 21/03 Q1026

VFR

21°C / 3°C

[أكثر]
رياح 310º variable 240º to 350º 4kt
مجال رؤية >10km
حالة الطقس -
غيوم Clouds and Visibility OK
الضغط 1026
تغيير -
خام LGIO 060950Z 31004KT 240V350 CAVOK 21/03 Q1026

VFR

20°C / 3°C

[أكثر]
رياح 310º variable 260º to 020º 6kt
مجال رؤية >10km
حالة الطقس -
غيوم Clouds and Visibility OK
الضغط 1026
تغيير -
خام LGIO 060920Z 31006KT 260V020 CAVOK 20/03 Q1026

VFR

19°C / 4°C

[أكثر]
رياح 280º variable 220º to 330º 4kt
مجال رؤية >10km
حالة الطقس -
غيوم Clouds and Visibility OK
الضغط 1026
تغيير -
خام LGIO 060850Z 28004KT 220V330 CAVOK 19/04 Q1026

VFR

18°C / 6°C

[أكثر]
رياح 320º variable 260º to 360º 4kt
مجال رؤية >10km
حالة الطقس -
غيوم Clouds and Visibility OK
الضغط 1026
تغيير -
خام LGIO 060820Z 32004KT 260V360 CAVOK 18/06 Q1026

VFR

16°C / 7°C

[أكثر]
رياح 360º variable 300º to 040º 4kt
مجال رؤية >10km
حالة الطقس -
غيوم Clouds and Visibility OK
الضغط 1027
تغيير -
خام LGIO 060750Z 36004KT 300V040 CAVOK 16/07 Q1027

VFR

15°C / 6°C

[أكثر]
رياح variable 2kt
مجال رؤية >10km
حالة الطقس -
غيوم Clouds and Visibility OK
الضغط 1027
تغيير -
خام LGIO 060720Z VRB02KT CAVOK 15/06 Q1027

VFR

13°C / 7°C

[أكثر]
رياح 360º 4kt
مجال رؤية >10km
حالة الطقس -
غيوم Clouds and Visibility OK
الضغط 1027
تغيير -
خام LGIO 060650Z 36004KT CAVOK 13/07 Q1027

VFR

11°C / 6°C

[أكثر]
رياح variable 3kt
مجال رؤية >10km
حالة الطقس -
غيوم Clouds and Visibility OK
الضغط 1027
تغيير -
خام LGIO 060620Z VRB03KT CAVOK 11/06 Q1027

VFR

11°C / 6°C

[أكثر]
رياح variable 0kt
مجال رؤية >10km
حالة الطقس -
غيوم Clouds and Visibility OK
الضغط 1027
تغيير -
خام LGIO 060550Z 00000KT CAVOK 11/06 Q1027

انقر لIoánnina (LGIO)

From till


From till Wind variable 3kt. Visibility 10km or more. Nil Significant Cloud.

خام: TAF LGIO 061700Z 0618/0703 VRB03KT CAVOK

رادار وهطول الأمطار التنبؤ الآني لIoánnina

رذاذ
ضوء
معتدل
ثقيل
ثقيل جدا
وابل

مؤشر المكان يشير الى Ioánnina. تظهر في هذه الرسوم المتحركة هطول الامطار بالرادار للساعة الماضية, و توقعات 1h. رذاذ أو تساقط ثلوج خفيف قد يكون غير مرئي للرادار. كثافة هطول الأمطار مرمزة بالألوان وتتراوح من الأزرق الفاتح إلى البرتقالي.

صور الأقمار الصناعية الملتقطة و الأمطار حالياً لIoánnina, اليونان

المؤشر يدل على موقع Ioánnina. [أكثر]

تجمع صورة الأقمار الصناعية في الوقت الفعلي بين الضوء المرئي أثناء النهار والأشعة تحت الحمراء أثناء الليل. لا تبدو الصورة مظلمة ليلاً، لأن الأشعة تحت الحمراء يمكنها الكشف عن الاختلافات في درجة الحرارة. لسوء الحظ ، يصعب التمييز بين السحب المنخفضة والضباب ودرجات حرارة الأرض ، وبالتالي يمكن أن تكون الصور غير مرئية تقريبًا أثناء الليل. يتم تحديث صور الأقمار الصناعية Meteosat الخاصة بأوروبا في الوقت الفعلي كل 5 دقائق، بينما يتم تحديث صور GOES-16 / GOES-17 (أمريكا الشمالية والجنوبية) و Himawari (آسيا) كل 10 دقائق.

يقدر هطول الأمطار من الرادار والأقمار الصناعية. تقديرات هطول الأمطار من الأقمار الصناعية أقل دقة في الليل منها أثناء النهار. اللون البرتقالي يعبر الأماكن حيث تم الكشف عن البرق (أكثر من أوروبا).

حقوق النسخ 2022 EUMETSAT / meteoblue. بيانات البرق مقدمة من nowcast.

العودة الى الأعلى